createdAt,value
2022-09-27T00:01:21.990Z,10.20
2022-09-27T00:03:55.267Z,10.20
2022-09-27T00:06:26.745Z,10.20
2022-09-27T00:08:55.750Z,10.10
2022-09-27T00:11:28.173Z,10.20
2022-09-27T00:13:57.830Z,10.10
2022-09-27T00:16:28.655Z,10.10
2022-09-27T00:19:02.059Z,10.10
2022-09-27T00:21:32.293Z,10.10
2022-09-27T00:24:01.707Z,10.10
2022-09-27T00:26:30.810Z,10.10
2022-09-27T00:28:59.844Z,10.00
2022-09-27T00:31:30.535Z,10.00
2022-09-27T00:34:03.490Z,9.90
2022-09-27T00:36:33.968Z,9.80
2022-09-27T00:39:03.123Z,9.80
2022-09-27T00:41:33.534Z,9.90
2022-09-27T00:44:04.857Z,9.90
2022-09-27T00:46:38.227Z,9.80
2022-09-27T00:49:20.772Z,9.80
2022-09-27T00:51:55.550Z,9.70
2022-09-27T00:54:28.099Z,9.60
2022-09-27T00:56:57.797Z,9.50
2022-09-27T00:59:30.187Z,9.50
2022-09-27T01:01:59.039Z,9.50
2022-09-27T01:04:32.222Z,9.50
2022-09-27T01:07:01.690Z,9.50
2022-09-27T01:09:30.939Z,9.40
2022-09-27T01:12:08.618Z,9.40
2022-09-27T01:14:54.732Z,9.30
2022-09-27T01:17:36.681Z,9.20
2022-09-27T01:20:25.316Z,9.20
2022-09-27T01:23:09.562Z,9.20
2022-09-27T01:25:56.904Z,9.30
2022-09-27T01:28:41.493Z,9.20
2022-09-27T01:31:17.704Z,9.10
2022-09-27T01:33:51.376Z,9.10
2022-09-27T01:36:28.924Z,9.00
2022-09-27T01:39:18.988Z,9.00
2022-09-27T01:42:13.796Z,9.00
2022-09-27T01:44:54.147Z,9.00
2022-09-27T01:47:34.746Z,9.10
2022-09-27T01:50:25.878Z,9.10
2022-09-27T01:53:00.613Z,9.30
2022-09-27T01:55:40.342Z,9.40
2022-09-27T01:58:48.045Z,9.60
2022-09-27T02:01:20.167Z,9.70
2022-09-27T02:03:53.131Z,9.80
2022-09-27T02:06:45.701Z,9.90
2022-09-27T02:09:28.845Z,10.00
2022-09-27T02:12:12.710Z,10.10
2022-09-27T02:14:50.117Z,10.10
2022-09-27T02:17:32.518Z,10.20
2022-09-27T02:20:13.197Z,10.20
2022-09-27T02:22:52.677Z,10.20
2022-09-27T02:25:25.421Z,10.30
2022-09-27T02:28:02.203Z,10.30
2022-09-27T02:30:36.237Z,10.40
2022-09-27T02:33:19.877Z,10.40
2022-09-27T02:35:50.640Z,10.40
2022-09-27T02:38:20.346Z,10.40
2022-09-27T02:40:49.623Z,10.30
2022-09-27T02:43:20.327Z,10.20
2022-09-27T02:46:14.601Z,10.30
2022-09-27T02:48:53.881Z,10.20
2022-09-27T02:51:42.841Z,10.20
2022-09-27T02:54:20.507Z,10.30
2022-09-27T02:57:30.365Z,10.30
2022-09-27T03:00:18.600Z,10.30
2022-09-27T03:03:04.484Z,10.40
2022-09-27T03:05:43.276Z,10.30
2022-09-27T03:08:14.180Z,10.40
2022-09-27T03:10:43.171Z,10.30
2022-09-27T03:13:12.226Z,10.30
2022-09-27T03:15:41.688Z,10.30
2022-09-27T03:18:10.507Z,10.30
2022-09-27T03:20:58.035Z,10.30
2022-09-27T03:23:29.614Z,10.30
2022-09-27T03:25:58.886Z,10.30
2022-09-27T03:28:29.771Z,10.20
2022-09-27T03:30:58.991Z,10.20
2022-09-27T03:33:45.717Z,10.10
2022-09-27T03:36:15.009Z,10.00
2022-09-27T03:38:45.438Z,10.00
2022-09-27T03:41:18.377Z,10.10
2022-09-27T03:43:47.329Z,10.10
2022-09-27T03:46:16.769Z,10.00
2022-09-27T03:48:46.100Z,10.00
2022-09-27T03:51:14.770Z,10.00
2022-09-27T03:53:45.332Z,9.90
2022-09-27T03:56:14.594Z,9.90
2022-09-27T03:58:43.608Z,9.90
2022-09-27T04:01:13.151Z,9.80
2022-09-27T04:03:43.576Z,9.80
2022-09-27T04:06:41.767Z,9.80
2022-09-27T04:09:12.208Z,9.70
2022-09-27T04:11:58.677Z,9.70
2022-09-27T04:14:28.092Z,9.70
2022-09-27T04:17:23.038Z,9.70
2022-09-27T04:20:12.626Z,9.60
2022-09-27T04:22:45.626Z,9.60
2022-09-27T04:25:16.379Z,9.60
2022-09-27T04:27:46.935Z,9.60
2022-09-27T04:30:16.956Z,9.60
2022-09-27T04:33:07.133Z,9.60
2022-09-27T04:36:26.382Z,9.60
2022-09-27T04:39:11.599Z,9.60
2022-09-27T04:41:45.502Z,9.50
2022-09-27T04:44:14.922Z,9.50
2022-09-27T04:46:48.295Z,9.50
2022-09-27T04:49:17.883Z,9.50
2022-09-27T04:51:47.904Z,9.60
2022-09-27T04:54:16.500Z,9.60
2022-09-27T04:57:10.061Z,9.60
2022-09-27T04:59:40.689Z,9.50
2022-09-27T05:02:09.875Z,9.50
2022-09-27T05:04:59.553Z,9.50
2022-09-27T05:07:35.311Z,9.50
2022-09-27T05:10:09.488Z,9.50
2022-09-27T05:12:39.573Z,9.50
2022-09-27T05:15:09.863Z,9.50
2022-09-27T05:17:58.866Z,9.60
2022-09-27T05:20:58.927Z,9.60
2022-09-27T05:23:34.364Z,9.70
2022-09-27T05:26:05.578Z,9.80
2022-09-27T05:28:36.451Z,9.80
2022-09-27T05:31:05.814Z,9.90
2022-09-27T05:33:34.845Z,9.90
2022-09-27T05:36:26.723Z,10.00
2022-09-27T05:38:55.526Z,10.10
2022-09-27T05:41:25.546Z,10.20
2022-09-27T05:43:55.793Z,10.40
2022-09-27T05:46:24.520Z,10.40
2022-09-27T05:48:54.134Z,10.50
2022-09-27T05:51:22.862Z,10.40
2022-09-27T05:53:51.443Z,10.50
2022-09-27T05:56:26.703Z,10.50
2022-09-27T05:59:15.370Z,10.50
2022-09-27T06:02:04.824Z,10.50
2022-09-27T06:04:56.849Z,10.60
2022-09-27T06:08:02.064Z,10.50
2022-09-27T06:10:39.446Z,10.50
2022-09-27T06:13:12.457Z,10.50
2022-09-27T06:15:47.351Z,10.50
2022-09-27T06:18:18.260Z,10.50
2022-09-27T06:20:49.743Z,10.60
2022-09-27T06:23:20.794Z,10.60
2022-09-27T06:25:51.870Z,10.60
2022-09-27T06:28:58.723Z,10.60
2022-09-27T06:31:29.271Z,10.70
2022-09-27T06:34:10.222Z,10.70
2022-09-27T06:36:38.809Z,10.70
2022-09-27T06:39:08.145Z,10.70
2022-09-27T06:41:57.826Z,10.70
2022-09-27T06:44:50.469Z,10.70
2022-09-27T06:47:56.119Z,10.70
2022-09-27T06:51:03.190Z,10.70
2022-09-27T06:53:33.098Z,10.80
2022-09-27T06:56:02.523Z,10.90
2022-09-27T06:58:59.232Z,11.10
2022-09-27T07:01:47.061Z,11.10
2022-09-27T07:04:32.341Z,11.30
2022-09-27T07:07:12.239Z,11.20
2022-09-27T07:09:44.573Z,11.40
2022-09-27T07:12:14.275Z,11.40
2022-09-27T07:14:44.558Z,11.50
2022-09-27T07:17:16.519Z,11.40
2022-09-27T07:19:48.082Z,11.50
2022-09-27T07:22:16.665Z,11.60
2022-09-27T07:24:49.488Z,11.80
2022-09-27T07:27:18.512Z,11.90
2022-09-27T07:29:47.576Z,11.90
2022-09-27T07:32:16.400Z,12.00
2022-09-27T07:34:45.079Z,12.30
2022-09-27T07:37:15.863Z,12.40
2022-09-27T07:39:46.253Z,12.40
2022-09-27T07:42:15.184Z,12.40
2022-09-27T07:44:47.352Z,12.50
2022-09-27T07:47:51.192Z,12.60
2022-09-27T07:50:26.444Z,12.60
2022-09-27T07:53:07.535Z,12.50
2022-09-27T07:55:38.317Z,12.40
2022-09-27T07:58:22.199Z,12.20
2022-09-27T08:00:54.754Z,12.20
2022-09-27T08:03:23.500Z,12.20
2022-09-27T08:05:52.150Z,12.10
2022-09-27T08:08:22.175Z,12.10
2022-09-27T08:10:52.520Z,12.10
2022-09-27T08:13:21.745Z,12.20
2022-09-27T08:15:53.535Z,12.20
2022-09-27T08:18:24.750Z,12.20
2022-09-27T08:20:53.701Z,12.20
2022-09-27T08:23:32.780Z,12.30
2022-09-27T08:26:30.093Z,12.30
2022-09-27T08:29:19.285Z,12.20
2022-09-27T08:31:54.427Z,12.20
2022-09-27T08:34:24.704Z,12.20
2022-09-27T08:36:55.887Z,12.30
2022-09-27T08:39:28.019Z,12.40
2022-09-27T08:42:03.619Z,12.60
2022-09-27T08:44:42.137Z,12.60
2022-09-27T08:47:19.391Z,12.60
2022-09-27T08:49:52.866Z,12.80
2022-09-27T08:52:27.603Z,12.80
2022-09-27T08:55:02.432Z,12.80
2022-09-27T08:57:31.113Z,12.80
2022-09-27T09:00:05.934Z,12.90
2022-09-27T09:02:36.505Z,13.00
2022-09-27T09:05:11.884Z,13.00
2022-09-27T09:07:58.181Z,12.90
2022-09-27T09:11:02.146Z,12.90
2022-09-27T09:13:49.824Z,13.00
2022-09-27T09:16:31.519Z,12.90
2022-09-27T09:19:17.791Z,12.80
2022-09-27T09:22:14.565Z,12.90
2022-09-27T09:25:00.907Z,13.00
2022-09-27T09:27:40.606Z,13.00
2022-09-27T09:30:22.032Z,13.00
2022-09-27T09:33:15.029Z,13.10
2022-09-27T09:35:51.028Z,12.80
2022-09-27T09:38:24.514Z,13.00
2022-09-27T09:40:59.806Z,13.00
2022-09-27T09:43:37.271Z,13.10
2022-09-27T09:46:17.513Z,13.10
2022-09-27T09:48:51.392Z,13.20
2022-09-27T09:51:23.618Z,13.20
2022-09-27T09:53:58.825Z,13.10
2022-09-27T09:56:42.071Z,13.10
2022-09-27T09:59:18.621Z,13.20
2022-09-27T10:01:50.336Z,13.20
2022-09-27T10:04:23.940Z,13.30
2022-09-27T10:06:56.560Z,13.30
2022-09-27T10:09:29.980Z,13.30
2022-09-27T10:12:17.627Z,13.20
2022-09-27T10:14:54.555Z,13.40
2022-09-27T10:17:27.265Z,13.40
2022-09-27T10:19:59.889Z,13.50
2022-09-27T10:22:32.914Z,13.50
2022-09-27T10:25:10.843Z,13.60
2022-09-27T10:27:57.020Z,13.60
2022-09-27T10:30:35.118Z,13.60
2022-09-27T10:33:19.291Z,13.70
2022-09-27T10:36:03.689Z,13.70
2022-09-27T10:38:38.736Z,13.80
2022-09-27T10:41:32.613Z,13.80
2022-09-27T10:44:23.138Z,13.90
2022-09-27T10:47:27.212Z,13.90
2022-09-27T10:50:49.579Z,13.80
2022-09-27T10:53:36.535Z,13.70
2022-09-27T10:56:24.216Z,13.50
2022-09-27T10:58:53.544Z,13.70
2022-09-27T11:01:23.832Z,13.90
2022-09-27T11:04:22.185Z,13.90
2022-09-27T11:06:50.987Z,13.90
2022-09-27T11:09:26.482Z,13.90
2022-09-27T11:12:11.354Z,14.10
2022-09-27T11:14:40.878Z,14.10
2022-09-27T11:17:18.864Z,14.10
2022-09-27T11:20:16.630Z,14.30
2022-09-27T11:23:18.996Z,14.30
2022-09-27T11:26:00.580Z,14.20
2022-09-27T11:28:40.700Z,14.10
2022-09-27T11:31:26.205Z,14.00
2022-09-27T11:34:31.939Z,14.10
2022-09-27T11:37:22.514Z,14.10
2022-09-27T11:40:06.271Z,14.10
2022-09-27T11:42:53.009Z,14.20
2022-09-27T11:45:56.222Z,14.20
2022-09-27T11:48:40.220Z,14.30
2022-09-27T11:51:31.240Z,14.20
2022-09-27T11:54:16.254Z,14.20
2022-09-27T11:56:52.634Z,14.40
2022-09-27T11:59:38.920Z,14.50
2022-09-27T12:02:25.755Z,14.40
2022-09-27T12:05:07.417Z,14.30
2022-09-27T12:07:45.391Z,14.40
2022-09-27T12:10:19.196Z,14.40
2022-09-27T12:12:53.635Z,14.50
2022-09-27T12:15:27.043Z,14.60
2022-09-27T12:18:02.509Z,14.70
2022-09-27T12:20:36.658Z,14.70
2022-09-27T12:23:09.390Z,14.90
2022-09-27T12:26:00.142Z,14.70
2022-09-27T12:28:39.617Z,14.80
2022-09-27T12:31:31.778Z,14.90
2022-09-27T12:34:19.366Z,14.90
2022-09-27T12:36:56.213Z,14.90
2022-09-27T12:39:30.218Z,14.90
2022-09-27T12:42:20.450Z,14.90
2022-09-27T12:44:50.988Z,14.90
2022-09-27T12:47:37.886Z,14.80
2022-09-27T12:50:16.677Z,14.60
2022-09-27T12:52:52.199Z,14.50
2022-09-27T12:55:55.919Z,14.40
2022-09-27T12:59:07.178Z,14.30
2022-09-27T13:01:56.016Z,14.10
2022-09-27T13:04:47.578Z,14.00
2022-09-27T13:07:35.931Z,14.00
2022-09-27T13:10:30.587Z,14.00
2022-09-27T13:13:04.755Z,14.00
2022-09-27T13:15:37.432Z,14.00
2022-09-27T13:18:08.479Z,13.90
2022-09-27T13:20:49.038Z,13.90
2022-09-27T13:23:59.439Z,14.00
2022-09-27T13:26:51.990Z,13.90
2022-09-27T13:29:27.468Z,13.80
2022-09-27T13:32:18.070Z,13.80
2022-09-27T13:35:20.538Z,13.70
2022-09-27T13:37:59.305Z,13.60
2022-09-27T13:40:44.628Z,13.60
2022-09-27T13:43:48.694Z,13.60
2022-09-27T13:46:29.159Z,13.50
2022-09-27T13:49:03.055Z,13.40
2022-09-27T13:51:56.224Z,13.30
2022-09-27T13:54:50.882Z,13.30
2022-09-27T13:57:42.188Z,13.30
2022-09-27T14:00:18.749Z,13.30
2022-09-27T14:03:06.663Z,13.30
2022-09-27T14:05:43.209Z,13.20
2022-09-27T14:08:22.622Z,13.10
2022-09-27T14:10:52.338Z,13.10
2022-09-27T14:13:24.161Z,13.00
2022-09-27T14:16:04.483Z,13.00
2022-09-27T14:18:36.397Z,13.00
2022-09-27T14:21:20.792Z,13.00
2022-09-27T14:24:30.405Z,13.00
2022-09-27T14:27:17.428Z,13.00
2022-09-27T14:29:50.101Z,13.00
2022-09-27T14:32:25.614Z,13.00
2022-09-27T14:35:28.738Z,13.00
2022-09-27T14:38:02.460Z,13.10
2022-09-27T14:40:43.562Z,13.10
2022-09-27T14:43:17.511Z,13.10
2022-09-27T14:45:48.349Z,13.10
2022-09-27T14:48:23.761Z,13.10
2022-09-27T14:51:05.038Z,13.10
2022-09-27T14:53:42.493Z,13.00
2022-09-27T14:56:18.039Z,12.90
2022-09-27T14:58:48.409Z,13.00
2022-09-27T15:01:20.124Z,13.00
2022-09-27T15:03:49.953Z,13.00
2022-09-27T15:06:19.281Z,12.90
2022-09-27T15:08:50.378Z,12.90
2022-09-27T15:11:20.488Z,12.90
2022-09-27T15:13:52.941Z,12.80
2022-09-27T15:16:25.457Z,12.80
2022-09-27T15:19:03.947Z,12.70
2022-09-27T15:21:34.238Z,12.70
2022-09-27T15:24:05.214Z,12.70
2022-09-27T15:26:39.648Z,12.70
2022-09-27T15:29:18.892Z,12.70
2022-09-27T15:31:47.555Z,12.80
2022-09-27T15:34:20.339Z,12.80
2022-09-27T15:36:55.744Z,12.70
2022-09-27T15:39:32.384Z,12.70
2022-09-27T15:42:09.138Z,12.70
2022-09-27T15:44:40.446Z,12.60
2022-09-27T15:47:40.577Z,12.60
2022-09-27T15:50:33.846Z,12.60
2022-09-27T15:53:02.958Z,12.60
2022-09-27T15:55:35.035Z,12.70
2022-09-27T15:58:05.767Z,12.60
2022-09-27T16:00:35.007Z,12.50
2022-09-27T16:03:04.069Z,12.40
2022-09-27T16:05:33.251Z,12.40
2022-09-27T16:08:02.284Z,12.40
2022-09-27T16:10:38.667Z,12.30
2022-09-27T16:13:07.318Z,12.20
2022-09-27T16:15:35.889Z,12.30
2022-09-27T16:18:05.224Z,12.30
2022-09-27T16:20:34.094Z,12.30
2022-09-27T16:23:03.339Z,12.40
2022-09-27T16:25:33.792Z,12.40
2022-09-27T16:28:03.696Z,12.30
2022-09-27T16:30:33.749Z,12.30
2022-09-27T16:33:02.537Z,12.20
2022-09-27T16:35:31.277Z,12.40
2022-09-27T16:38:00.024Z,12.40
2022-09-27T16:40:30.833Z,12.30
2022-09-27T16:43:00.935Z,12.30
2022-09-27T16:45:33.489Z,12.20
2022-09-27T16:48:02.793Z,12.30
2022-09-27T16:50:48.798Z,12.10
2022-09-27T16:53:17.671Z,12.30
2022-09-27T16:55:46.510Z,12.30
2022-09-27T16:58:16.935Z,12.20
2022-09-27T17:00:45.889Z,12.20
2022-09-27T17:03:14.757Z,12.10
2022-09-27T17:05:43.411Z,12.10
2022-09-27T17:08:12.235Z,12.20
2022-09-27T17:10:46.352Z,12.20
2022-09-27T17:13:16.532Z,12.10
2022-09-27T17:15:45.290Z,12.20
2022-09-27T17:18:14.323Z,12.20
2022-09-27T17:20:43.861Z,12.20
2022-09-27T17:23:12.987Z,12.20
2022-09-27T17:25:41.909Z,12.10
2022-09-27T17:28:10.904Z,12.00
2022-09-27T17:30:45.196Z,11.90
2022-09-27T17:33:13.994Z,11.80
2022-09-27T17:35:45.026Z,11.80
2022-09-27T17:38:13.931Z,11.80
2022-09-27T17:40:42.699Z,11.70
2022-09-27T17:43:11.558Z,11.70
2022-09-27T17:45:42.800Z,11.70
2022-09-27T17:48:29.210Z,11.70
2022-09-27T17:50:58.309Z,11.60
2022-09-27T17:53:27.128Z,11.60
2022-09-27T17:56:02.179Z,11.60
2022-09-27T17:58:31.172Z,11.50
2022-09-27T18:01:04.637Z,11.50
2022-09-27T18:03:33.346Z,11.40
2022-09-27T18:06:07.262Z,11.40
2022-09-27T18:08:36.000Z,11.40
2022-09-27T18:11:06.115Z,11.50
2022-09-27T18:13:37.776Z,11.40
2022-09-27T18:16:08.882Z,11.30
2022-09-27T18:18:39.709Z,11.30
2022-09-27T18:21:11.398Z,11.20
2022-09-27T18:23:39.912Z,11.10
2022-09-27T18:26:09.087Z,11.00
2022-09-27T18:28:38.838Z,11.00
2022-09-27T18:31:11.192Z,11.00
2022-09-27T18:33:40.461Z,11.00
2022-09-27T18:36:12.119Z,11.00
2022-09-27T18:38:41.139Z,11.00
2022-09-27T18:41:11.172Z,10.90
2022-09-27T18:43:40.555Z,10.90
2022-09-27T18:46:34.657Z,10.90
2022-09-27T18:49:01.806Z,10.90
2022-09-27T18:51:31.782Z,10.80
2022-09-27T18:54:02.570Z,10.80
2022-09-27T18:56:35.064Z,10.80
2022-09-27T18:59:03.704Z,10.90
2022-09-27T19:01:36.293Z,10.90
2022-09-27T19:04:05.194Z,10.90
2022-09-27T19:06:34.239Z,11.00
2022-09-27T19:09:03.976Z,11.00
2022-09-27T19:11:33.087Z,11.10
2022-09-27T19:14:02.477Z,11.00
2022-09-27T19:16:31.898Z,11.00
2022-09-27T19:19:02.026Z,11.10
2022-09-27T19:21:31.268Z,11.00
2022-09-27T19:24:00.353Z,11.00
2022-09-27T19:26:29.046Z,11.00
2022-09-27T19:28:58.898Z,10.90
2022-09-27T19:31:29.877Z,10.90
2022-09-27T19:34:00.528Z,10.90
2022-09-27T19:36:31.286Z,10.80
2022-09-27T19:39:00.327Z,10.80
2022-09-27T19:41:29.146Z,10.70
2022-09-27T19:43:58.781Z,10.80
2022-09-27T19:46:28.225Z,10.80
2022-09-27T19:48:57.061Z,10.80
2022-09-27T19:51:27.132Z,10.80
2022-09-27T19:53:58.062Z,10.70
2022-09-27T19:56:26.987Z,10.80
2022-09-27T19:58:56.180Z,10.80
2022-09-27T20:01:26.873Z,10.70
2022-09-27T20:03:56.866Z,10.70
2022-09-27T20:06:25.676Z,10.70
2022-09-27T20:08:55.785Z,10.70
2022-09-27T20:11:26.946Z,10.60
2022-09-27T20:13:55.815Z,10.80
2022-09-27T20:16:26.304Z,10.80
2022-09-27T20:18:57.187Z,10.70
2022-09-27T20:21:28.829Z,10.70
2022-09-27T20:23:58.327Z,10.60
2022-09-27T20:26:29.685Z,10.60
2022-09-27T20:28:59.782Z,10.50
2022-09-27T20:31:29.935Z,10.50
2022-09-27T20:33:58.777Z,10.60
2022-09-27T20:36:29.524Z,10.50
2022-09-27T20:39:03.106Z,10.50
2022-09-27T20:41:35.877Z,10.50
2022-09-27T20:44:06.955Z,10.50
2022-09-27T20:46:37.260Z,10.50
2022-09-27T20:49:08.389Z,10.50
2022-09-27T20:51:39.416Z,10.40
2022-09-27T20:54:10.295Z,10.30
2022-09-27T20:56:42.867Z,10.30
2022-09-27T20:59:16.968Z,10.20
2022-09-27T21:01:47.616Z,10.30
2022-09-27T21:04:18.341Z,10.20
2022-09-27T21:06:47.506Z,10.10
2022-09-27T21:09:19.178Z,10.10
2022-09-27T21:11:51.891Z,10.10
2022-09-27T21:14:21.062Z,10.00
2022-09-27T21:16:49.988Z,10.00
2022-09-27T21:19:19.336Z,10.00
2022-09-27T21:21:48.205Z,9.90
2022-09-27T21:24:16.844Z,9.90
2022-09-27T21:26:45.695Z,9.90
2022-09-27T21:29:16.308Z,9.90
2022-09-27T21:31:45.270Z,9.90
2022-09-27T21:34:13.896Z,9.90
2022-09-27T21:36:42.715Z,9.80
2022-09-27T21:39:11.396Z,9.80
2022-09-27T21:41:39.997Z,9.90
2022-09-27T21:44:09.397Z,9.80
2022-09-27T21:46:43.505Z,9.80
2022-09-27T21:49:12.477Z,9.90
2022-09-27T21:51:43.146Z,9.80
2022-09-27T21:54:15.140Z,9.90
2022-09-27T21:56:44.969Z,9.90
2022-09-27T21:59:18.192Z,9.90
2022-09-27T22:01:48.868Z,9.80
2022-09-27T22:04:17.824Z,9.80
2022-09-27T22:06:46.711Z,9.80
2022-09-27T22:09:17.367Z,9.80
2022-09-27T22:11:47.743Z,9.80
2022-09-27T22:14:17.334Z,9.70
2022-09-27T22:16:46.281Z,9.70
2022-09-27T22:19:18.071Z,9.70
2022-09-27T22:21:47.289Z,9.60
2022-09-27T22:24:18.181Z,9.60
2022-09-27T22:26:49.860Z,9.60
2022-09-27T22:29:19.395Z,9.60
2022-09-27T22:31:48.826Z,9.70
2022-09-27T22:34:29.063Z,9.70
2022-09-27T22:36:59.149Z,9.60
2022-09-27T22:39:29.027Z,9.70
2022-09-27T22:41:58.113Z,9.60
2022-09-27T22:44:26.964Z,9.60
2022-09-27T22:46:55.693Z,9.60
2022-09-27T22:49:26.097Z,9.60
2022-09-27T22:51:54.840Z,9.70
2022-09-27T22:54:23.703Z,9.70
2022-09-27T22:56:57.385Z,9.70
2022-09-27T22:59:27.141Z,9.70
2022-09-27T23:01:56.411Z,9.70
2022-09-27T23:04:26.801Z,9.70
2022-09-27T23:06:55.693Z,9.70
2022-09-27T23:09:24.726Z,9.60
2022-09-27T23:11:54.365Z,9.60
2022-09-27T23:14:23.403Z,9.60
2022-09-27T23:16:52.435Z,9.60
2022-09-27T23:19:22.411Z,9.50
2022-09-27T23:21:52.275Z,9.40
2022-09-27T23:24:21.284Z,9.40
2022-09-27T23:27:10.367Z,9.30
2022-09-27T23:29:39.373Z,9.20
2022-09-27T23:32:07.937Z,9.20
2022-09-27T23:34:36.452Z,9.10
2022-09-27T23:37:07.004Z,9.00
2022-09-27T23:39:35.616Z,8.90
2022-09-27T23:42:04.194Z,8.90
2022-09-27T23:44:32.739Z,8.80
2022-09-27T23:47:02.336Z,7.40
2022-09-27T23:49:32.205Z,8.80
2022-09-27T23:52:01.469Z,8.80
2022-09-27T23:54:31.676Z,8.70
2022-09-27T23:57:00.202Z,8.70
2022-09-27T23:59:28.753Z,8.60
